sensor_id;sensor_type;location;lat;lon;timestamp;P1;durP1;ratioP1;P2;durP2;ratioP2
24677;SDS011;12800;53.094;8.778;2023-06-24T00:00:30;8.60;;;7.22;;
24677;SDS011;12800;53.094;8.778;2023-06-24T00:02:55;9.35;;;7.00;;
24677;SDS011;12800;53.094;8.778;2023-06-24T00:05:23;9.60;;;6.20;;
24677;SDS011;12800;53.094;8.778;2023-06-24T00:07:48;12.02;;;10.00;;
24677;SDS011;12800;53.094;8.778;2023-06-24T00:10:14;52.35;;;39.95;;
24677;SDS011;12800;53.094;8.778;2023-06-24T00:12:40;55.03;;;40.20;;
24677;SDS011;12800;53.094;8.778;2023-06-24T00:15:06;11.95;;;9.07;;
24677;SDS011;12800;53.094;8.778;2023-06-24T00:17:34;10.40;;;7.40;;
24677;SDS011;12800;53.094;8.778;2023-06-24T00:20:00;9.73;;;6.13;;
24677;SDS011;12800;53.094;8.778;2023-06-24T00:22:29;11.00;;;7.28;;
24677;SDS011;12800;53.094;8.778;2023-06-24T00:24:55;10.25;;;7.43;;
24677;SDS011;12800;53.094;8.778;2023-06-24T00:27:21;10.10;;;7.30;;
24677;SDS011;12800;53.094;8.778;2023-06-24T00:29:47;10.70;;;8.20;;
24677;SDS011;12800;53.094;8.778;2023-06-24T00:32:13;11.20;;;7.88;;
24677;SDS011;12800;53.094;8.778;2023-06-24T00:34:38;14.05;;;8.07;;
24677;SDS011;12800;53.094;8.778;2023-06-24T00:37:08;13.70;;;7.65;;
24677;SDS011;12800;53.094;8.778;2023-06-24T00:39:34;11.20;;;7.72;;
24677;SDS011;12800;53.094;8.778;2023-06-24T00:42:00;8.85;;;7.30;;
24677;SDS011;12800;53.094;8.778;2023-06-24T00:44:25;12.20;;;7.78;;
24677;SDS011;12800;53.094;8.778;2023-06-24T00:46:51;12.82;;;8.80;;
24677;SDS011;12800;53.094;8.778;2023-06-24T00:49:18;9.88;;;7.70;;
24677;SDS011;12800;53.094;8.778;2023-06-24T00:51:44;10.43;;;8.05;;
24677;SDS011;12800;53.094;8.778;2023-06-24T00:54:15;12.60;;;7.93;;
24677;SDS011;12800;53.094;8.778;2023-06-24T00:56:42;9.80;;;7.53;;
24677;SDS011;12800;53.094;8.778;2023-06-24T00:59:08;13.65;;;8.63;;
24677;SDS011;12800;53.094;8.778;2023-06-24T01:01:37;11.18;;;7.97;;
24677;SDS011;12800;53.094;8.778;2023-06-24T01:04:03;11.70;;;7.65;;
24677;SDS011;12800;53.094;8.778;2023-06-24T01:06:29;10.75;;;8.40;;
24677;SDS011;12800;53.094;8.778;2023-06-24T01:08:56;12.25;;;8.23;;
24677;SDS011;12800;53.094;8.778;2023-06-24T01:11:25;11.43;;;8.45;;
24677;SDS011;12800;53.094;8.778;2023-06-24T01:13:51;12.63;;;7.78;;
24677;SDS011;12800;53.094;8.778;2023-06-24T01:19:05;14.18;;;9.20;;
24677;SDS011;12800;53.094;8.778;2023-06-24T01:27:46;15.45;;;9.05;;
24677;SDS011;12800;53.094;8.778;2023-06-24T01:30:43;11.73;;;8.77;;
24677;SDS011;12800;53.094;8.778;2023-06-24T01:33:24;9.90;;;7.90;;
24677;SDS011;12800;53.094;8.778;2023-06-24T01:36:01;14.45;;;9.10;;
24677;SDS011;12800;53.094;8.778;2023-06-24T01:38:33;12.88;;;8.40;;
24677;SDS011;12800;53.094;8.778;2023-06-24T01:41:01;11.73;;;8.65;;
24677;SDS011;12800;53.094;8.778;2023-06-24T01:43:29;10.93;;;8.30;;
24677;SDS011;12800;53.094;8.778;2023-06-24T01:45:58;12.30;;;9.73;;
24677;SDS011;12800;53.094;8.778;2023-06-24T01:48:28;15.25;;;9.63;;
24677;SDS011;12800;53.094;8.778;2023-06-24T01:50:58;12.48;;;8.30;;
24677;SDS011;12800;53.094;8.778;2023-06-24T01:53:23;11.98;;;9.35;;
24677;SDS011;12800;53.094;8.778;2023-06-24T01:55:49;13.57;;;9.65;;
24677;SDS011;12800;53.094;8.778;2023-06-24T01:58:18;14.25;;;9.38;;
24677;SDS011;12800;53.094;8.778;2023-06-24T02:00:46;12.70;;;9.13;;
24677;SDS011;12800;53.094;8.778;2023-06-24T02:03:14;13.52;;;8.95;;
24677;SDS011;12800;53.094;8.778;2023-06-24T02:05:40;12.40;;;9.40;;
24677;SDS011;12800;53.094;8.778;2023-06-24T02:08:08;9.88;;;8.48;;
24677;SDS011;12800;53.094;8.778;2023-06-24T02:10:36;16.92;;;8.80;;
24677;SDS011;12800;53.094;8.778;2023-06-24T02:13:04;11.52;;;8.23;;
24677;SDS011;12800;53.094;8.778;2023-06-24T02:15:30;12.75;;;9.48;;
24677;SDS011;12800;53.094;8.778;2023-06-24T02:17:58;14.32;;;9.63;;
24677;SDS011;12800;53.094;8.778;2023-06-24T02:20:27;10.35;;;9.25;;
24677;SDS011;12800;53.094;8.778;2023-06-24T02:22:54;13.27;;;9.18;;
24677;SDS011;12800;53.094;8.778;2023-06-24T02:25:23;16.35;;;9.48;;
24677;SDS011;12800;53.094;8.778;2023-06-24T02:27:51;12.40;;;9.07;;
24677;SDS011;12800;53.094;8.778;2023-06-24T02:30:17;11.73;;;8.70;;
24677;SDS011;12800;53.094;8.778;2023-06-24T02:32:44;14.98;;;9.60;;
24677;SDS011;12800;53.094;8.778;2023-06-24T02:35:10;12.77;;;8.82;;
24677;SDS011;12800;53.094;8.778;2023-06-24T02:37:35;11.88;;;9.55;;
24677;SDS011;12800;53.094;8.778;2023-06-24T02:40:01;11.23;;;9.45;;
24677;SDS011;12800;53.094;8.778;2023-06-24T02:42:29;11.77;;;9.20;;
24677;SDS011;12800;53.094;8.778;2023-06-24T02:44:55;15.70;;;9.98;;
24677;SDS011;12800;53.094;8.778;2023-06-24T02:47:20;14.68;;;11.00;;
24677;SDS011;12800;53.094;8.778;2023-06-24T02:49:47;13.32;;;10.18;;
24677;SDS011;12800;53.094;8.778;2023-06-24T02:52:16;12.77;;;9.27;;
24677;SDS011;12800;53.094;8.778;2023-06-24T02:54:42;14.95;;;9.82;;
24677;SDS011;12800;53.094;8.778;2023-06-24T02:57:09;10.70;;;8.80;;
24677;SDS011;12800;53.094;8.778;2023-06-24T02:59:36;12.88;;;9.88;;
24677;SDS011;12800;53.094;8.778;2023-06-24T03:02:02;15.93;;;10.48;;
24677;SDS011;12800;53.094;8.778;2023-06-24T03:04:30;13.55;;;10.68;;
24677;SDS011;12800;53.094;8.778;2023-06-24T03:06:55;14.27;;;9.90;;
24677;SDS011;12800;53.094;8.778;2023-06-24T03:09:22;16.75;;;11.43;;
24677;SDS011;12800;53.094;8.778;2023-06-24T03:11:48;12.80;;;9.75;;
24677;SDS011;12800;53.094;8.778;2023-06-24T03:14:13;14.13;;;10.70;;
24677;SDS011;12800;53.094;8.778;2023-06-24T03:16:39;12.25;;;9.82;;
24677;SDS011;12800;53.094;8.778;2023-06-24T03:19:05;16.17;;;10.23;;
24677;SDS011;12800;53.094;8.778;2023-06-24T03:21:31;13.55;;;10.68;;
24677;SDS011;12800;53.094;8.778;2023-06-24T03:23:57;13.82;;;10.88;;
24677;SDS011;12800;53.094;8.778;2023-06-24T03:26:24;13.65;;;10.68;;
24677;SDS011;12800;53.094;8.778;2023-06-24T03:28:56;16.73;;;11.77;;
24677;SDS011;12800;53.094;8.778;2023-06-24T03:31:22;14.27;;;11.82;;
24677;SDS011;12800;53.094;8.778;2023-06-24T03:33:48;13.93;;;10.75;;
24677;SDS011;12800;53.094;8.778;2023-06-24T03:36:14;13.93;;;11.25;;
24677;SDS011;12800;53.094;8.778;2023-06-24T03:38:39;13.88;;;9.80;;
24677;SDS011;12800;53.094;8.778;2023-06-24T03:41:05;13.90;;;10.13;;
24677;SDS011;12800;53.094;8.778;2023-06-24T03:43:31;14.32;;;10.65;;
24677;SDS011;12800;53.094;8.778;2023-06-24T03:45:57;13.93;;;10.25;;
24677;SDS011;12800;53.094;8.778;2023-06-24T03:48:22;14.18;;;10.60;;
24677;SDS011;12800;53.094;8.778;2023-06-24T03:50:48;18.17;;;10.77;;
24677;SDS011;12800;53.094;8.778;2023-06-24T03:53:13;13.07;;;10.32;;
24677;SDS011;12800;53.094;8.778;2023-06-24T03:55:39;19.77;;;11.52;;
24677;SDS011;12800;53.094;8.778;2023-06-24T03:58:05;12.93;;;10.45;;
24677;SDS011;12800;53.094;8.778;2023-06-24T04:00:31;14.93;;;10.38;;
24677;SDS011;12800;53.094;8.778;2023-06-24T04:02:56;15.65;;;10.90;;
24677;SDS011;12800;53.094;8.778;2023-06-24T04:05:25;15.65;;;11.50;;
24677;SDS011;12800;53.094;8.778;2023-06-24T04:07:51;15.45;;;11.07;;
24677;SDS011;12800;53.094;8.778;2023-06-24T04:10:17;14.52;;;10.80;;
24677;SDS011;12800;53.094;8.778;2023-06-24T04:12:43;13.40;;;10.10;;
24677;SDS011;12800;53.094;8.778;2023-06-24T04:15:09;17.80;;;11.52;;
24677;SDS011;12800;53.094;8.778;2023-06-24T04:17:35;12.52;;;10.55;;
24677;SDS011;12800;53.094;8.778;2023-06-24T04:20:01;12.68;;;10.32;;
24677;SDS011;12800;53.094;8.778;2023-06-24T04:22:29;14.60;;;10.55;;
24677;SDS011;12800;53.094;8.778;2023-06-24T04:24:55;15.65;;;10.80;;
24677;SDS011;12800;53.094;8.778;2023-06-24T04:27:20;15.70;;;9.70;;
24677;SDS011;12800;53.094;8.778;2023-06-24T04:29:46;17.00;;;11.20;;
24677;SDS011;12800;53.094;8.778;2023-06-24T04:32:11;12.93;;;10.60;;
24677;SDS011;12800;53.094;8.778;2023-06-24T04:34:37;18.20;;;11.50;;
24677;SDS011;12800;53.094;8.778;2023-06-24T04:37:03;19.58;;;11.55;;
24677;SDS011;12800;53.094;8.778;2023-06-24T04:39:29;14.73;;;11.15;;
24677;SDS011;12800;53.094;8.778;2023-06-24T04:41:54;15.02;;;11.18;;
24677;SDS011;12800;53.094;8.778;2023-06-24T04:44:20;15.73;;;10.75;;
24677;SDS011;12800;53.094;8.778;2023-06-24T04:46:45;15.65;;;11.13;;
24677;SDS011;12800;53.094;8.778;2023-06-24T04:49:11;14.68;;;11.32;;
24677;SDS011;12800;53.094;8.778;2023-06-24T04:51:37;15.70;;;11.55;;
24677;SDS011;12800;53.094;8.778;2023-06-24T04:54:02;15.75;;;11.57;;
24677;SDS011;12800;53.094;8.778;2023-06-24T04:56:29;15.05;;;10.98;;
24677;SDS011;12800;53.094;8.778;2023-06-24T04:58:55;18.05;;;10.65;;
24677;SDS011;12800;53.094;8.778;2023-06-24T05:01:21;14.35;;;11.00;;
24677;SDS011;12800;53.094;8.778;2023-06-24T05:03:47;13.65;;;11.43;;
24677;SDS011;12800;53.094;8.778;2023-06-24T05:06:13;12.93;;;10.77;;
24677;SDS011;12800;53.094;8.778;2023-06-24T05:08:38;15.80;;;11.18;;
24677;SDS011;12800;53.094;8.778;2023-06-24T05:11:04;15.60;;;11.70;;
24677;SDS011;12800;53.094;8.778;2023-06-24T05:13:30;16.23;;;10.70;;
24677;SDS011;12800;53.094;8.778;2023-06-24T05:15:56;14.85;;;11.27;;
24677;SDS011;12800;53.094;8.778;2023-06-24T05:18:21;16.40;;;11.10;;
24677;SDS011;12800;53.094;8.778;2023-06-24T05:20:47;15.55;;;11.15;;
24677;SDS011;12800;53.094;8.778;2023-06-24T05:23:13;16.00;;;10.25;;
24677;SDS011;12800;53.094;8.778;2023-06-24T05:25:39;14.77;;;11.40;;
24677;SDS011;12800;53.094;8.778;2023-06-24T05:28:04;15.57;;;11.55;;
24677;SDS011;12800;53.094;8.778;2023-06-24T05:30:30;16.77;;;11.38;;
24677;SDS011;12800;53.094;8.778;2023-06-24T05:32:55;16.08;;;10.07;;
24677;SDS011;12800;53.094;8.778;2023-06-24T05:35:21;13.77;;;10.85;;
24677;SDS011;12800;53.094;8.778;2023-06-24T05:37:47;13.65;;;9.82;;
24677;SDS011;12800;53.094;8.778;2023-06-24T05:40:12;14.20;;;9.77;;
24677;SDS011;12800;53.094;8.778;2023-06-24T05:42:38;13.73;;;9.38;;
24677;SDS011;12800;53.094;8.778;2023-06-24T05:45:04;12.48;;;9.60;;
24677;SDS011;12800;53.094;8.778;2023-06-24T05:47:33;14.07;;;9.63;;
24677;SDS011;12800;53.094;8.778;2023-06-24T05:49:59;14.50;;;9.85;;
24677;SDS011;12800;53.094;8.778;2023-06-24T05:52:24;11.05;;;9.95;;
24677;SDS011;12800;53.094;8.778;2023-06-24T05:54:50;12.32;;;9.82;;
24677;SDS011;12800;53.094;8.778;2023-06-24T05:57:16;14.52;;;10.68;;
24677;SDS011;12800;53.094;8.778;2023-06-24T05:59:41;12.77;;;9.75;;
24677;SDS011;12800;53.094;8.778;2023-06-24T06:02:07;14.45;;;9.15;;
24677;SDS011;12800;53.094;8.778;2023-06-24T06:04:32;14.27;;;9.20;;
24677;SDS011;12800;53.094;8.778;2023-06-24T06:06:58;12.77;;;9.55;;
24677;SDS011;12800;53.094;8.778;2023-06-24T06:09:24;12.05;;;8.93;;
24677;SDS011;12800;53.094;8.778;2023-06-24T06:11:49;14.65;;;9.52;;
24677;SDS011;12800;53.094;8.778;2023-06-24T06:14:15;12.80;;;9.70;;
24677;SDS011;12800;53.094;8.778;2023-06-24T06:16:41;12.05;;;9.57;;
24677;SDS011;12800;53.094;8.778;2023-06-24T06:19:06;10.43;;;8.25;;
24677;SDS011;12800;53.094;8.778;2023-06-24T06:21:32;12.00;;;8.52;;
24677;SDS011;12800;53.094;8.778;2023-06-24T06:23:57;13.98;;;8.60;;
24677;SDS011;12800;53.094;8.778;2023-06-24T06:26:23;12.80;;;10.43;;
24677;SDS011;12800;53.094;8.778;2023-06-24T06:28:49;12.52;;;9.40;;
24677;SDS011;12800;53.094;8.778;2023-06-24T06:31:15;10.90;;;8.73;;
24677;SDS011;12800;53.094;8.778;2023-06-24T06:33:41;13.50;;;8.57;;
24677;SDS011;12800;53.094;8.778;2023-06-24T06:36:07;10.23;;;7.85;;
24677;SDS011;12800;53.094;8.778;2023-06-24T06:38:33;10.27;;;7.22;;
24677;SDS011;12800;53.094;8.778;2023-06-24T06:40:59;9.85;;;7.28;;
24677;SDS011;12800;53.094;8.778;2023-06-24T06:43:25;10.88;;;8.23;;
24677;SDS011;12800;53.094;8.778;2023-06-24T06:45:50;10.43;;;7.95;;
24677;SDS011;12800;53.094;8.778;2023-06-24T06:48:16;9.18;;;7.88;;
24677;SDS011;12800;53.094;8.778;2023-06-24T06:50:41;16.42;;;8.75;;
24677;SDS011;12800;53.094;8.778;2023-06-24T06:53:07;10.45;;;7.38;;
24677;SDS011;12800;53.094;8.778;2023-06-24T06:55:33;11.05;;;7.68;;
24677;SDS011;12800;53.094;8.778;2023-06-24T06:57:58;9.73;;;7.72;;
24677;SDS011;12800;53.094;8.778;2023-06-24T07:00:24;14.65;;;8.70;;
24677;SDS011;12800;53.094;8.778;2023-06-24T07:02:49;24.13;;;17.13;;
24677;SDS011;12800;53.094;8.778;2023-06-24T07:05:15;14.10;;;9.95;;
24677;SDS011;12800;53.094;8.778;2023-06-24T07:07:41;11.88;;;8.38;;
24677;SDS011;12800;53.094;8.778;2023-06-24T07:10:09;7.18;;;6.05;;
24677;SDS011;12800;53.094;8.778;2023-06-24T07:12:35;6.20;;;5.05;;
24677;SDS011;12800;53.094;8.778;2023-06-24T07:15:00;7.35;;;5.18;;
24677;SDS011;12800;53.094;8.778;2023-06-24T07:17:26;8.90;;;5.78;;
24677;SDS011;12800;53.094;8.778;2023-06-24T07:19:52;14.80;;;10.55;;
24677;SDS011;12800;53.094;8.778;2023-06-24T07:22:17;8.13;;;4.90;;
24677;SDS011;12800;53.094;8.778;2023-06-24T07:24:43;6.85;;;5.55;;
24677;SDS011;12800;53.094;8.778;2023-06-24T07:27:08;10.30;;;7.20;;
24677;SDS011;12800;53.094;8.778;2023-06-24T07:29:34;7.50;;;5.75;;
24677;SDS011;12800;53.094;8.778;2023-06-24T07:32:00;8.82;;;5.60;;
24677;SDS011;12800;53.094;8.778;2023-06-24T07:34:26;17.30;;;12.80;;
24677;SDS011;12800;53.094;8.778;2023-06-24T07:36:52;10.93;;;7.68;;
24677;SDS011;12800;53.094;8.778;2023-06-24T07:39:17;6.78;;;5.85;;
24677;SDS011;12800;53.094;8.778;2023-06-24T07:41:43;12.48;;;8.75;;
24677;SDS011;12800;53.094;8.778;2023-06-24T07:44:08;8.23;;;6.03;;
24677;SDS011;12800;53.094;8.778;2023-06-24T07:46:34;9.18;;;7.47;;
24677;SDS011;12800;53.094;8.778;2023-06-24T07:49:00;20.80;;;15.95;;
24677;SDS011;12800;53.094;8.778;2023-06-24T07:51:26;13.73;;;12.02;;
24677;SDS011;12800;53.094;8.778;2023-06-24T07:53:52;16.60;;;12.38;;
24677;SDS011;12800;53.094;8.778;2023-06-24T07:56:18;12.30;;;7.65;;
24677;SDS011;12800;53.094;8.778;2023-06-24T07:58:43;9.13;;;7.80;;
24677;SDS011;12800;53.094;8.778;2023-06-24T08:01:09;9.60;;;7.50;;
24677;SDS011;12800;53.094;8.778;2023-06-24T08:03:34;8.77;;;6.30;;
24677;SDS011;12800;53.094;8.778;2023-06-24T08:06:02;10.82;;;7.18;;
24677;SDS011;12800;53.094;8.778;2023-06-24T08:08:28;18.48;;;13.85;;
24677;SDS011;12800;53.094;8.778;2023-06-24T08:10:54;11.43;;;10.20;;
24677;SDS011;12800;53.094;8.778;2023-06-24T08:13:19;12.48;;;10.30;;
24677;SDS011;12800;53.094;8.778;2023-06-24T08:15:45;14.23;;;8.73;;
24677;SDS011;12800;53.094;8.778;2023-06-24T08:18:11;11.82;;;7.57;;
24677;SDS011;12800;53.094;8.778;2023-06-24T08:20:37;7.68;;;6.85;;
24677;SDS011;12800;53.094;8.778;2023-06-24T08:23:02;6.38;;;5.60;;
24677;SDS011;12800;53.094;8.778;2023-06-24T08:25:28;20.70;;;13.82;;
24677;SDS011;12800;53.094;8.778;2023-06-24T08:37:21;5.30;;;4.80;;
24677;SDS011;12800;53.094;8.778;2023-06-24T08:39:47;5.47;;;4.20;;
24677;SDS011;12800;53.094;8.778;2023-06-24T08:42:13;16.48;;;12.18;;
24677;SDS011;12800;53.094;8.778;2023-06-24T08:44:38;6.45;;;5.60;;
24677;SDS011;12800;53.094;8.778;2023-06-24T08:47:04;5.93;;;5.32;;
24677;SDS011;12800;53.094;8.778;2023-06-24T08:49:30;5.18;;;4.55;;
24677;SDS011;12800;53.094;8.778;2023-06-24T08:52:02;6.00;;;4.38;;
24677;SDS011;12800;53.094;8.778;2023-06-24T08:54:34;6.30;;;4.57;;
24677;SDS011;12800;53.094;8.778;2023-06-24T08:57:01;13.50;;;11.50;;
24677;SDS011;12800;53.094;8.778;2023-06-24T08:59:36;13.75;;;9.68;;
24677;SDS011;12800;53.094;8.778;2023-06-24T09:02:02;7.88;;;6.35;;
24677;SDS011;12800;53.094;8.778;2023-06-24T09:04:28;9.05;;;8.02;;
24677;SDS011;12800;53.094;8.778;2023-06-24T09:06:54;6.40;;;4.72;;
24677;SDS011;12800;53.094;8.778;2023-06-24T09:09:20;7.40;;;4.68;;
24677;SDS011;12800;53.094;8.778;2023-06-24T09:11:53;6.95;;;5.07;;
24677;SDS011;12800;53.094;8.778;2023-06-24T09:14:26;4.95;;;4.22;;
24677;SDS011;12800;53.094;8.778;2023-06-24T09:16:54;5.47;;;4.28;;
24677;SDS011;12800;53.094;8.778;2023-06-24T09:19:26;7.50;;;4.00;;
24677;SDS011;12800;53.094;8.778;2023-06-24T09:22:07;5.03;;;4.30;;
24677;SDS011;12800;53.094;8.778;2023-06-24T09:24:34;18.00;;;14.00;;
24677;SDS011;12800;53.094;8.778;2023-06-24T09:27:00;22.73;;;17.27;;
24677;SDS011;12800;53.094;8.778;2023-06-24T09:29:27;32.67;;;23.08;;
24677;SDS011;12800;53.094;8.778;2023-06-24T09:31:54;6.30;;;5.13;;
24677;SDS011;12800;53.094;8.778;2023-06-24T09:34:25;6.75;;;5.40;;
24677;SDS011;12800;53.094;8.778;2023-06-24T09:37:00;7.32;;;4.70;;
24677;SDS011;12800;53.094;8.778;2023-06-24T09:39:27;4.88;;;4.10;;
24677;SDS011;12800;53.094;8.778;2023-06-24T09:41:59;4.75;;;4.03;;
24677;SDS011;12800;53.094;8.778;2023-06-24T09:44:28;7.25;;;5.25;;
24677;SDS011;12800;53.094;8.778;2023-06-24T09:46:54;6.10;;;5.13;;
24677;SDS011;12800;53.094;8.778;2023-06-24T09:49:21;5.70;;;4.78;;
24677;SDS011;12800;53.094;8.778;2023-06-24T09:51:49;8.73;;;4.35;;
24677;SDS011;12800;53.094;8.778;2023-06-24T09:54:16;5.25;;;4.28;;
24677;SDS011;12800;53.094;8.778;2023-06-24T09:56:44;6.38;;;4.38;;
24677;SDS011;12800;53.094;8.778;2023-06-24T09:59:12;6.55;;;4.78;;
24677;SDS011;12800;53.094;8.778;2023-06-24T10:01:39;6.13;;;4.95;;
24677;SDS011;12800;53.094;8.778;2023-06-24T10:04:07;6.60;;;4.47;;
24677;SDS011;12800;53.094;8.778;2023-06-24T10:06:34;4.60;;;4.18;;
24677;SDS011;12800;53.094;8.778;2023-06-24T10:09:00;5.07;;;3.97;;
24677;SDS011;12800;53.094;8.778;2023-06-24T10:11:26;6.63;;;4.28;;
24677;SDS011;12800;53.094;8.778;2023-06-24T10:13:53;7.95;;;4.38;;
24677;SDS011;12800;53.094;8.778;2023-06-24T10:16:20;7.05;;;4.88;;
24677;SDS011;12800;53.094;8.778;2023-06-24T10:18:46;7.28;;;4.30;;
24677;SDS011;12800;53.094;8.778;2023-06-24T10:21:12;6.10;;;4.63;;
24677;SDS011;12800;53.094;8.778;2023-06-24T10:26:35;7.47;;;4.80;;
24677;SDS011;12800;53.094;8.778;2023-06-24T10:37:04;6.60;;;4.80;;
24677;SDS011;12800;53.094;8.778;2023-06-24T10:42:29;7.70;;;5.80;;
24677;SDS011;12800;53.094;8.778;2023-06-24T10:45:13;5.30;;;4.72;;
24677;SDS011;12800;53.094;8.778;2023-06-24T10:47:43;7.53;;;5.03;;
24677;SDS011;12800;53.094;8.778;2023-06-24T10:50:15;7.93;;;5.75;;
24677;SDS011;12800;53.094;8.778;2023-06-24T10:52:48;7.93;;;5.47;;
24677;SDS011;12800;53.094;8.778;2023-06-24T10:55:18;6.10;;;5.50;;
24677;SDS011;12800;53.094;8.778;2023-06-24T10:57:44;7.78;;;5.95;;
24677;SDS011;12800;53.094;8.778;2023-06-24T11:00:11;8.10;;;5.15;;
24677;SDS011;12800;53.094;8.778;2023-06-24T11:02:38;6.72;;;5.07;;
24677;SDS011;12800;53.094;8.778;2023-06-24T11:05:04;6.28;;;5.53;;
24677;SDS011;12800;53.094;8.778;2023-06-24T11:07:31;6.40;;;5.45;;
24677;SDS011;12800;53.094;8.778;2023-06-24T11:12:38;8.13;;;5.53;;
24677;SDS011;12800;53.094;8.778;2023-06-24T11:15:05;6.68;;;5.20;;
24677;SDS011;12800;53.094;8.778;2023-06-24T11:17:33;9.35;;;5.50;;
24677;SDS011;12800;53.094;8.778;2023-06-24T11:20:00;6.53;;;5.63;;
24677;SDS011;12800;53.094;8.778;2023-06-24T11:22:26;7.85;;;5.65;;
24677;SDS011;12800;53.094;8.778;2023-06-24T11:24:52;7.63;;;6.28;;
24677;SDS011;12800;53.094;8.778;2023-06-24T11:27:28;9.27;;;6.00;;
24677;SDS011;12800;53.094;8.778;2023-06-24T11:29:55;7.30;;;6.00;;
24677;SDS011;12800;53.094;8.778;2023-06-24T11:32:36;6.38;;;5.05;;
24677;SDS011;12800;53.094;8.778;2023-06-24T11:35:03;7.50;;;4.35;;
24677;SDS011;12800;53.094;8.778;2023-06-24T11:37:33;7.15;;;6.15;;
24677;SDS011;12800;53.094;8.778;2023-06-24T11:40:08;7.07;;;6.07;;
24677;SDS011;12800;53.094;8.778;2023-06-24T11:42:38;6.82;;;5.10;;
24677;SDS011;12800;53.094;8.778;2023-06-24T11:45:09;7.07;;;5.10;;
24677;SDS011;12800;53.094;8.778;2023-06-24T11:47:36;10.23;;;7.97;;
24677;SDS011;12800;53.094;8.778;2023-06-24T11:50:04;5.57;;;5.03;;
24677;SDS011;12800;53.094;8.778;2023-06-24T11:52:41;7.63;;;5.18;;
24677;SDS011;12800;53.094;8.778;2023-06-24T11:55:18;6.03;;;4.40;;
24677;SDS011;12800;53.094;8.778;2023-06-24T11:57:49;8.18;;;6.63;;
24677;SDS011;12800;53.094;8.778;2023-06-24T12:00:20;7.05;;;5.28;;
24677;SDS011;12800;53.094;8.778;2023-06-24T12:02:49;5.65;;;4.78;;
24677;SDS011;12800;53.094;8.778;2023-06-24T12:05:25;6.63;;;5.30;;
24677;SDS011;12800;53.094;8.778;2023-06-24T12:07:54;5.68;;;5.18;;
24677;SDS011;12800;53.094;8.778;2023-06-24T12:10:21;7.45;;;5.97;;
24677;SDS011;12800;53.094;8.778;2023-06-24T12:12:47;8.73;;;6.65;;
24677;SDS011;12800;53.094;8.778;2023-06-24T12:15:12;7.43;;;5.03;;
24677;SDS011;12800;53.094;8.778;2023-06-24T12:17:38;6.75;;;4.78;;
24677;SDS011;12800;53.094;8.778;2023-06-24T12:20:04;6.07;;;4.75;;
24677;SDS011;12800;53.094;8.778;2023-06-24T12:22:31;6.05;;;5.45;;
24677;SDS011;12800;53.094;8.778;2023-06-24T12:24:56;6.13;;;4.80;;
24677;SDS011;12800;53.094;8.778;2023-06-24T12:27:22;6.38;;;5.22;;
24677;SDS011;12800;53.094;8.778;2023-06-24T12:29:47;8.63;;;6.53;;
24677;SDS011;12800;53.094;8.778;2023-06-24T12:32:13;6.03;;;4.13;;
24677;SDS011;12800;53.094;8.778;2023-06-24T12:34:39;5.68;;;4.63;;
24677;SDS011;12800;53.094;8.778;2023-06-24T12:37:04;5.25;;;4.50;;
24677;SDS011;12800;53.094;8.778;2023-06-24T12:39:30;5.00;;;4.13;;
24677;SDS011;12800;53.094;8.778;2023-06-24T12:41:56;5.78;;;4.35;;
24677;SDS011;12800;53.094;8.778;2023-06-24T12:44:21;6.35;;;4.68;;
24677;SDS011;12800;53.094;8.778;2023-06-24T12:46:47;5.07;;;4.57;;
24677;SDS011;12800;53.094;8.778;2023-06-24T12:49:13;7.65;;;6.13;;
24677;SDS011;12800;53.094;8.778;2023-06-24T12:51:38;6.95;;;4.50;;
24677;SDS011;12800;53.094;8.778;2023-06-24T12:54:04;5.50;;;4.35;;
24677;SDS011;12800;53.094;8.778;2023-06-24T12:56:29;4.93;;;4.45;;
24677;SDS011;12800;53.094;8.778;2023-06-24T12:58:55;4.72;;;4.30;;
24677;SDS011;12800;53.094;8.778;2023-06-24T13:01:21;5.35;;;4.57;;
24677;SDS011;12800;53.094;8.778;2023-06-24T13:03:46;5.18;;;4.38;;
24677;SDS011;12800;53.094;8.778;2023-06-24T13:06:12;7.38;;;4.28;;
24677;SDS011;12800;53.094;8.778;2023-06-24T13:08:40;7.90;;;5.00;;
24677;SDS011;12800;53.094;8.778;2023-06-24T13:11:06;6.15;;;4.95;;
24677;SDS011;12800;53.094;8.778;2023-06-24T13:13:32;7.18;;;5.15;;
24677;SDS011;12800;53.094;8.778;2023-06-24T13:15:57;6.78;;;4.85;;
24677;SDS011;12800;53.094;8.778;2023-06-24T13:18:23;5.78;;;5.18;;
24677;SDS011;12800;53.094;8.778;2023-06-24T13:20:49;6.88;;;4.70;;
24677;SDS011;12800;53.094;8.778;2023-06-24T13:23:14;6.88;;;5.30;;
24677;SDS011;12800;53.094;8.778;2023-06-24T13:25:40;6.95;;;5.00;;
24677;SDS011;12800;53.094;8.778;2023-06-24T13:28:05;6.05;;;4.78;;
24677;SDS011;12800;53.094;8.778;2023-06-24T13:30:31;5.63;;;4.10;;
24677;SDS011;12800;53.094;8.778;2023-06-24T13:32:57;5.82;;;5.20;;
24677;SDS011;12800;53.094;8.778;2023-06-24T13:35:22;6.03;;;5.00;;
24677;SDS011;12800;53.094;8.778;2023-06-24T13:37:48;5.85;;;4.70;;
24677;SDS011;12800;53.094;8.778;2023-06-24T13:40:14;6.60;;;5.70;;
24677;SDS011;12800;53.094;8.778;2023-06-24T13:42:39;6.18;;;5.32;;
24677;SDS011;12800;53.094;8.778;2023-06-24T13:45:05;5.22;;;4.72;;
24677;SDS011;12800;53.094;8.778;2023-06-24T13:47:31;5.10;;;4.65;;
24677;SDS011;12800;53.094;8.778;2023-06-24T13:49:56;5.30;;;4.80;;
24677;SDS011;12800;53.094;8.778;2023-06-24T13:52:23;6.07;;;4.93;;
24677;SDS011;12800;53.094;8.778;2023-06-24T13:54:50;7.28;;;5.15;;
24677;SDS011;12800;53.094;8.778;2023-06-24T13:57:16;5.28;;;4.78;;
24677;SDS011;12800;53.094;8.778;2023-06-24T13:59:41;7.57;;;5.35;;
24677;SDS011;12800;53.094;8.778;2023-06-24T14:02:07;5.97;;;4.95;;
24677;SDS011;12800;53.094;8.778;2023-06-24T14:04:34;6.10;;;5.50;;
24677;SDS011;12800;53.094;8.778;2023-06-24T14:07:00;6.07;;;5.40;;
24677;SDS011;12800;53.094;8.778;2023-06-24T14:09:27;9.45;;;5.38;;
24677;SDS011;12800;53.094;8.778;2023-06-24T14:11:53;6.63;;;4.90;;
24677;SDS011;12800;53.094;8.778;2023-06-24T14:14:20;9.18;;;5.28;;
24677;SDS011;12800;53.094;8.778;2023-06-24T14:16:46;13.25;;;11.07;;
24677;SDS011;12800;53.094;8.778;2023-06-24T14:19:12;27.92;;;24.98;;
24677;SDS011;12800;53.094;8.778;2023-06-24T14:21:38;6.10;;;5.55;;
24677;SDS011;12800;53.094;8.778;2023-06-24T14:24:04;8.38;;;5.20;;
24677;SDS011;12800;53.094;8.778;2023-06-24T14:26:31;4.68;;;4.28;;
24677;SDS011;12800;53.094;8.778;2023-06-24T14:28:57;5.55;;;4.45;;
24677;SDS011;12800;53.094;8.778;2023-06-24T14:31:23;6.50;;;5.45;;
24677;SDS011;12800;53.094;8.778;2023-06-24T14:33:48;8.13;;;6.07;;
24677;SDS011;12800;53.094;8.778;2023-06-24T14:36:14;6.25;;;5.50;;
24677;SDS011;12800;53.094;8.778;2023-06-24T14:38:40;5.82;;;5.13;;
24677;SDS011;12800;53.094;8.778;2023-06-24T14:41:07;6.03;;;4.93;;
24677;SDS011;12800;53.094;8.778;2023-06-24T14:43:33;4.75;;;3.95;;
24677;SDS011;12800;53.094;8.778;2023-06-24T14:45:59;5.03;;;4.53;;
24677;SDS011;12800;53.094;8.778;2023-06-24T14:48:25;7.10;;;5.35;;
24677;SDS011;12800;53.094;8.778;2023-06-24T14:50:50;6.38;;;5.15;;
24677;SDS011;12800;53.094;8.778;2023-06-24T14:53:16;11.75;;;6.07;;
24677;SDS011;12800;53.094;8.778;2023-06-24T14:55:41;5.10;;;4.60;;
24677;SDS011;12800;53.094;8.778;2023-06-24T14:58:07;5.00;;;4.53;;
24677;SDS011;12800;53.094;8.778;2023-06-24T15:00:33;7.32;;;4.40;;
24677;SDS011;12800;53.094;8.778;2023-06-24T15:02:58;4.60;;;3.60;;
24677;SDS011;12800;53.094;8.778;2023-06-24T15:05:24;5.40;;;3.88;;
24677;SDS011;12800;53.094;8.778;2023-06-24T15:07:50;4.13;;;3.78;;
24677;SDS011;12800;53.094;8.778;2023-06-24T15:10:15;5.90;;;3.97;;